Time;durP1;ratioP1;P1;durP2;ratioP2;P2;SDS_P1;SDS_P2;PMS_P1;PMS_P2;Temp;Humidity;BMP_temperature;BMP_pressure;BME280_temperature;BME280_humidity;BME280_pressure;Samples;Min_cycle;Max_cycle;Signal;HPM_P1;HPM_P2
2023/09/09 00:02:08;;;;;;;30.73;23.57;;;;;;;-145.18;100.00;46656.50;5077424;28;20480;-64
2023/09/09 00:04:34;;;;;;;30.87;19.30;;;;;;;-145.18;100.00;46658.44;5125754;27;20031;-64
2023/09/09 00:07:02;;;;;;;26.20;19.33;;;;;;;-145.18;100.00;46654.53;5089291;28;20035;-64
2023/09/09 00:09:31;;;;;;;22.40;18.67;;;;;;;-145.18;100.00;46656.50;5087406;28;20483;-64
2023/09/09 00:11:56;;;;;;;14.40;12.87;;;;;;;-145.18;100.00;46660.41;5083357;28;20047;-64
2023/09/09 00:14:22;;;;;;;18.67;16.57;;;;;;;-145.18;100.00;46660.41;5086161;28;20489;-64
2023/09/09 00:16:48;;;;;;;17.50;14.00;;;;;;;-145.18;100.00;46660.41;5090051;28;20035;-64
2023/09/09 00:19:13;;;;;;;11.07;9.90;;;;;;;-145.18;100.00;46660.41;5083061;28;20032;-64
2023/09/09 00:21:38;;;;;;;10.77;9.70;;;;;;;-145.18;100.00;46658.44;5087960;28;20048;-64
2023/09/09 00:24:04;;;;;;;9.77;8.97;;;;;;;-145.18;100.00;46660.41;5082543;28;20031;-64
2023/09/09 00:26:31;;;;;;;35.33;16.00;;;;;;;-145.18;100.00;46656.50;5087058;28;20107;-64
2023/09/09 00:28:57;;;;;;;16.93;15.13;;;;;;;-145.18;100.00;46656.50;5094153;28;20436;-64
2023/09/09 00:31:23;;;;;;;66.30;20.23;;;;;;;-145.18;100.00;46654.53;5088388;28;20371;-64
2023/09/09 00:33:48;;;;;;;64.83;19.93;;;;;;;-145.18;100.00;46642.81;5086291;28;20021;-64
2023/09/09 00:36:14;;;;;;;86.83;22.27;;;;;;;-145.18;100.00;46640.88;5084219;28;20034;-64
2023/09/09 00:38:40;;;;;;;95.37;24.47;;;;;;;-145.18;100.00;46635.00;5085515;28;20050;-64
2023/09/09 00:41:16;;;;;;;147.17;26.40;;;;;;;-145.18;100.00;46635.00;5091978;28;20028;-64
2023/09/09 00:43:41;;;;;;;146.23;28.17;;;;;;;-145.18;100.00;46633.06;5074717;28;20031;-64
2023/09/09 00:46:08;;;;;;;68.33;28.33;;;;;;;-145.18;100.00;46629.13;5088834;28;20024;-64
2023/09/09 00:48:34;;;;;;;126.50;33.17;;;;;;;-145.18;100.00;46629.13;5084171;28;20027;-64
2023/09/09 00:51:00;;;;;;;69.03;31.60;;;;;;;-145.18;100.00;46625.22;5088487;28;20458;-64
2023/09/09 00:53:26;;;;;;;66.27;30.43;;;;;;;-145.18;100.00;46621.31;5115447;27;20046;-64
2023/09/09 00:55:53;;;;;;;126.50;31.27;;;;;;;-145.18;100.00;46625.22;5076368;28;20025;-64
2023/09/09 00:58:19;;;;;;;65.13;31.07;;;;;;;-145.18;100.00;46621.31;5078045;28;20066;-64
2023/09/09 01:00:44;;;;;;;32.93;27.80;;;;;;;-145.18;100.00;46625.22;5083504;28;20036;-60
2023/09/09 01:03:10;;;;;;;30.23;24.87;;;;;;;-145.18;100.00;46623.28;5089986;28;20034;-60
2023/09/09 01:05:38;;;;;;;30.87;25.40;;;;;;;-145.18;100.00;46627.19;5090407;28;20024;-60
2023/09/09 01:08:04;;;;;;;28.80;25.30;;;;;;;-145.18;100.00;46631.09;5084641;28;20070;-61
2023/09/09 01:10:30;;;;;;;34.87;28.33;;;;;;;-145.18;100.00;46633.06;5076090;28;20392;-60
2023/09/09 01:12:55;;;;;;;32.80;27.47;;;;;;;-145.18;100.00;46636.94;5084202;28;20025;-60
2023/09/09 01:15:21;;;;;;;33.27;26.10;;;;;;;-145.18;100.00;46635.00;5084263;28;20467;-60
2023/09/09 01:17:48;;;;;;;28.60;24.33;;;;;;;-145.18;100.00;46638.91;5089586;28;20428;-60
2023/09/09 01:20:19;;;;;;;36.80;27.53;;;;;;;-145.18;100.00;46636.94;5078232;28;20021;-60
2023/09/09 01:22:48;;;;;;;41.93;27.37;;;;;;;-145.18;100.00;46640.88;5084141;28;20040;-60
2023/09/09 01:25:14;;;;;;;35.80;23.70;;;;;;;-145.18;100.00;46638.91;5078680;28;20027;-60
2023/09/09 01:27:40;;;;;;;29.00;20.77;;;;;;;-145.18;100.00;46642.81;5082245;28;20030;-61
2023/09/09 01:30:07;;;;;;;26.07;21.83;;;;;;;-145.18;100.00;46654.53;5089136;28;20017;-60
2023/09/09 01:32:32;;;;;;;23.13;20.50;;;;;;;-145.18;100.00;46652.59;5086497;28;20024;-61
2023/09/09 01:34:58;;;;;;;26.13;22.37;;;;;;;-145.18;100.00;46656.50;5074260;28;20094;-60
2023/09/09 01:37:23;;;;;;;33.53;25.97;;;;;;;-145.18;100.00;46654.53;5084765;28;20432;-60
2023/09/09 01:39:49;;;;;;;37.27;27.77;;;;;;;-145.18;100.00;46652.59;5074305;28;20036;-60
2023/09/09 01:42:14;;;;;;;53.27;32.00;;;;;;;-145.18;100.00;46654.53;5075970;28;20108;-61
2023/09/09 01:44:42;;;;;;;61.40;33.47;;;;;;;-145.18;100.00;46652.59;5081639;28;20102;-61
2023/09/09 01:47:09;;;;;;;51.60;32.20;;;;;;;-145.18;100.00;46652.59;5089033;28;20081;-61
2023/09/09 01:49:34;;;;;;;67.90;33.60;;;;;;;-145.18;100.00;46652.59;5074471;28;20561;-61
2023/09/09 01:52:00;;;;;;;48.07;26.90;;;;;;;-145.18;100.00;46650.63;5076541;28;20036;-60
2023/09/09 01:54:25;;;;;;;64.13;27.37;;;;;;;-145.18;100.00;46656.50;5074094;28;20115;-61
2023/09/09 01:56:50;;;;;;;34.97;26.73;;;;;;;-145.18;100.00;46652.59;5077210;28;20048;-60
2023/09/09 01:59:16;;;;;;;40.90;26.70;;;;;;;-145.18;100.00;46654.53;5074912;28;20047;-60
2023/09/09 02:01:41;;;;;;;50.07;29.80;;;;;;;-145.18;100.00;46650.63;5075977;28;20472;-60
2023/09/09 02:04:06;;;;;;;39.73;28.37;;;;;;;-145.18;100.00;46652.59;5074946;28;20055;-60
2023/09/09 02:06:32;;;;;;;40.13;29.20;;;;;;;-145.18;100.00;46652.59;5088316;28;20035;-60
2023/09/09 02:08:57;;;;;;;47.53;31.50;;;;;;;-145.18;100.00;46656.50;5084451;28;20032;-60
2023/09/09 02:11:22;;;;;;;43.83;30.53;;;;;;;-145.18;100.00;46652.59;5087406;28;20031;-60
2023/09/09 02:13:48;;;;;;;47.83;32.30;;;;;;;-145.18;100.00;46652.59;5088736;28;20020;-60
2023/09/09 02:16:13;;;;;;;41.73;29.50;;;;;;;-145.18;100.00;46650.63;5100680;28;20360;-61
2023/09/09 02:18:39;;;;;;;34.87;28.87;;;;;;;-145.18;100.00;46650.63;5073921;28;20028;-60
2023/09/09 02:21:06;;;;;;;31.10;27.00;;;;;;;-145.18;100.00;46654.53;5074128;28;20123;-60
2023/09/09 02:23:32;;;;;;;28.40;25.30;;;;;;;-145.18;100.00;46658.44;5086833;28;20025;-60
2023/09/09 02:25:57;;;;;;;34.20;28.83;;;;;;;-145.18;100.00;46656.50;5083051;28;20075;-60
2023/09/09 02:28:24;;;;;;;34.00;30.30;;;;;;;-145.18;100.00;46656.50;5084014;28;20028;-60
2023/09/09 02:30:49;;;;;;;47.70;29.37;;;;;;;-145.18;100.00;46658.44;5088009;28;20434;-61
2023/09/09 02:33:15;;;;;;;37.83;30.97;;;;;;;-145.18;100.00;46656.50;5072035;28;20032;-61
2023/09/09 02:35:42;;;;;;;39.00;29.97;;;;;;;-145.18;100.00;46658.44;5087717;28;20024;-60
2023/09/09 02:38:07;;;;;;;45.90;28.63;;;;;;;-145.18;100.00;46656.50;5090581;28;20024;-60
2023/09/09 02:40:33;;;;;;;42.63;29.77;;;;;;;-145.18;100.00;46656.50;5088020;28;20073;-60
2023/09/09 02:42:58;;;;;;;47.17;31.37;;;;;;;-145.18;100.00;46654.53;5087891;28;20097;-60
2023/09/09 02:45:24;;;;;;;52.60;32.23;;;;;;;-145.18;100.00;46652.59;5077972;28;20111;-60
2023/09/09 02:47:49;;;;;;;62.37;34.07;;;;;;;-145.18;100.00;46654.53;5072869;28;20111;-60
2023/09/09 02:50:14;;;;;;;77.40;39.00;;;;;;;-145.18;100.00;46652.59;5076092;28;20023;-60
2023/09/09 02:52:40;;;;;;;63.37;41.17;;;;;;;-145.18;100.00;46640.88;5074104;28;20020;-60
2023/09/09 02:55:06;;;;;;;89.70;42.70;;;;;;;-145.18;100.00;46636.94;5075770;28;20036;-60
2023/09/09 02:57:31;;;;;;;70.27;44.80;;;;;;;-145.18;100.00;46636.94;5076478;28;20123;-60
2023/09/09 02:59:57;;;;;;;102.77;44.53;;;;;;;-145.18;100.00;46638.91;5086177;28;20031;-61
2023/09/09 03:02:22;;;;;;;63.77;45.47;;;;;;;-145.18;100.00;46635.00;5083345;28;20055;-60
2023/09/09 03:04:48;;;;;;;63.37;44.87;;;;;;;-145.18;100.00;46635.00;5084237;28;20399;-60
2023/09/09 03:07:13;;;;;;;96.13;47.50;;;;;;;-145.18;100.00;46635.00;5078136;28;20082;-60
2023/09/09 03:09:39;;;;;;;101.57;47.20;;;;;;;-145.18;100.00;46635.00;5083006;28;20028;-60
2023/09/09 03:12:05;;;;;;;116.57;45.27;;;;;;;-145.18;100.00;46633.06;5090231;28;20048;-61
2023/09/09 03:14:31;;;;;;;65.33;43.77;;;;;;;-145.18;100.00;46635.00;5075338;28;20485;-60
2023/09/09 03:16:58;;;;;;;103.50;48.67;;;;;;;-145.18;100.00;46633.06;5081184;28;20031;-60
2023/09/09 03:19:24;;;;;;;94.87;47.13;;;;;;;-145.18;100.00;46635.00;5075964;28;20029;-61
2023/09/09 03:21:50;;;;;;;80.00;49.83;;;;;;;-145.18;100.00;46633.06;5081335;28;20055;-61
2023/09/09 03:24:15;;;;;;;99.80;55.40;;;;;;;-145.18;100.00;46633.06;5091541;28;20035;-61
2023/09/09 03:26:41;;;;;;;97.47;56.20;;;;;;;-145.18;100.00;46631.09;5082134;28;20035;-61
2023/09/09 03:29:06;;;;;;;106.57;53.37;;;;;;;-145.18;100.00;46629.13;5083294;28;20475;-61
2023/09/09 03:31:32;;;;;;;101.63;56.07;;;;;;;-145.18;100.00;46631.09;5091170;28;20498;-61
2023/09/09 03:33:57;;;;;;;76.27;54.57;;;;;;;-145.18;100.00;46629.13;5093047;28;20054;-61
2023/09/09 03:36:22;;;;;;;94.63;56.57;;;;;;;-145.18;100.00;46631.09;5089002;28;20380;-61
2023/09/09 03:38:48;;;;;;;106.17;58.63;;;;;;;-145.18;100.00;46631.09;5085584;28;20105;-61
2023/09/09 03:41:13;;;;;;;119.50;59.93;;;;;;;-145.18;100.00;46627.19;5086561;28;20035;-61
2023/09/09 03:43:38;;;;;;;100.57;59.77;;;;;;;-145.18;100.00;46629.13;5088993;28;20088;-61
2023/09/09 03:46:04;;;;;;;83.30;59.40;;;;;;;-145.18;100.00;46635.00;5122885;27;20395;-61
2023/09/09 03:48:30;;;;;;;97.33;60.07;;;;;;;-145.18;100.00;46631.09;5084939;28;20036;-61
2023/09/09 03:50:59;;;;;;;132.60;63.37;;;;;;;-145.18;100.00;46631.09;5090458;28;20478;-61
2023/09/09 03:53:25;;;;;;;129.77;63.00;;;;;;;-145.18;100.00;46629.13;5089084;28;20016;-61
2023/09/09 03:55:50;;;;;;;119.50;62.33;;;;;;;-145.18;100.00;46629.13;5090036;28;20030;-61
2023/09/09 03:58:16;;;;;;;108.70;63.40;;;;;;;-145.18;100.00;46631.09;5084030;28;20389;-61
2023/09/09 04:00:41;;;;;;;94.53;60.50;;;;;;;-145.18;100.00;46635.00;5089357;28;20073;-61
2023/09/09 04:03:07;;;;;;;103.73;57.90;;;;;;;-145.18;100.00;46629.13;5087421;28;20051;-61
2023/09/09 04:05:32;;;;;;;82.53;57.50;;;;;;;-145.18;100.00;46629.13;5080259;28;20476;-61
2023/09/09 04:08:00;;;;;;;81.40;57.93;;;;;;;-145.18;100.00;46635.00;5084484;28;20032;-61
2023/09/09 04:10:26;;;;;;;94.87;58.17;;;;;;;-145.18;100.00;46633.06;5088048;28;20020;-61
2023/09/09 04:12:51;;;;;;;87.20;58.90;;;;;;;-145.18;100.00;46633.06;5089501;28;20031;-61
2023/09/09 04:15:17;;;;;;;86.30;56.80;;;;;;;-145.18;100.00;46631.09;5087593;28;20036;-61
2023/09/09 04:17:42;;;;;;;76.97;57.97;;;;;;;-145.18;100.00;46631.09;5083426;28;20081;-61
2023/09/09 04:20:11;;;;;;;74.40;53.80;;;;;;;-145.18;100.00;46631.09;5088111;28;20067;-61
2023/09/09 04:22:36;;;;;;;92.83;58.83;;;;;;;-145.18;100.00;46635.00;5094061;28;20055;-61
2023/09/09 04:25:01;;;;;;;90.57;60.10;;;;;;;-145.18;100.00;46633.06;5087109;28;20106;-61
2023/09/09 04:27:27;;;;;;;89.87;60.23;;;;;;;-145.18;100.00;46633.06;5083053;28;20033;-61
2023/09/09 04:29:52;;;;;;;86.73;59.00;;;;;;;-145.18;100.00;46636.94;5083470;28;20094;-61
2023/09/09 04:32:18;;;;;;;93.00;61.53;;;;;;;-145.18;100.00;46631.09;5087914;28;20044;-61
2023/09/09 04:34:44;;;;;;;96.70;61.33;;;;;;;-145.18;100.00;46633.06;5120259;27;20092;-61
2023/09/09 04:37:09;;;;;;;81.43;59.33;;;;;;;-145.18;100.00;46631.09;5076700;28;20589;-61
2023/09/09 04:39:35;;;;;;;84.33;55.63;;;;;;;-145.18;100.00;46633.06;5083801;28;20032;-61
2023/09/09 04:42:00;;;;;;;90.07;55.00;;;;;;;-145.18;100.00;46633.06;5088272;28;20469;-61
2023/09/09 04:44:25;;;;;;;92.47;53.47;;;;;;;-145.18;100.00;46635.00;5077639;28;20029;-61
2023/09/09 04:46:51;;;;;;;74.43;54.03;;;;;;;-145.18;100.00;46635.00;5084351;28;20407;-61
2023/09/09 04:49:17;;;;;;;79.20;48.43;;;;;;;-145.18;100.00;46638.91;5087941;28;20040;-61
2023/09/09 04:51:43;;;;;;;78.47;46.40;;;;;;;-145.18;100.00;46638.91;5091070;28;20395;-61
2023/09/09 04:54:09;;;;;;;76.73;45.83;;;;;;;-145.18;100.00;46636.94;5079552;28;20024;-61
2023/09/09 04:56:34;;;;;;;68.17;46.13;;;;;;;-145.18;100.00;46633.06;5088999;28;20031;-61
2023/09/09 04:58:59;;;;;;;86.30;46.60;;;;;;;-145.18;100.00;46636.94;5089812;28;20060;-61
2023/09/09 05:01:25;;;;;;;75.27;46.83;;;;;;;-145.18;100.00;46638.91;5082530;28;20451;-61
2023/09/09 05:03:50;;;;;;;92.87;43.83;;;;;;;-145.18;100.00;46638.91;5088056;28;20718;-61
2023/09/09 05:06:16;;;;;;;77.30;46.20;;;;;;;-145.18;100.00;46636.94;5093619;28;20546;-61
2023/09/09 05:08:41;;;;;;;95.70;45.33;;;;;;;-145.18;100.00;46635.00;5081003;28;20036;-61
2023/09/09 05:11:06;;;;;;;89.50;47.53;;;;;;;-145.18;100.00;46635.00;5084266;28;20103;-61
2023/09/09 05:13:32;;;;;;;83.33;46.10;;;;;;;-145.18;100.00;46629.13;5077882;28;20111;-61
2023/09/09 05:15:57;;;;;;;76.47;44.90;;;;;;;-145.18;100.00;46636.94;5083843;28;20504;-61
2023/09/09 05:18:22;;;;;;;84.07;39.07;;;;;;;-145.18;100.00;46631.09;5117192;27;20518;-61
2023/09/09 05:20:48;;;;;;;79.23;41.03;;;;;;;-145.18;100.00;46631.09;5088041;28;20399;-61
2023/09/09 05:23:13;;;;;;;73.40;41.73;;;;;;;-145.18;100.00;46635.00;5086854;28;20044;-61
2023/09/09 05:25:39;;;;;;;85.63;40.80;;;;;;;-145.18;100.00;46633.06;5090615;28;20027;-61
2023/09/09 05:28:04;;;;;;;84.00;36.87;;;;;;;-145.18;100.00;46633.06;5092978;28;20453;-61
2023/09/09 05:30:30;;;;;;;82.90;37.57;;;;;;;-145.18;100.00;46635.00;5091530;28;20032;-61
2023/09/09 05:32:55;;;;;;;72.40;37.90;;;;;;;-145.18;100.00;46635.00;5092983;28;20035;-61
2023/09/09 05:35:20;;;;;;;70.63;39.87;;;;;;;-145.18;100.00;46633.06;5091588;28;20035;-62
2023/09/09 05:37:46;;;;;;;75.17;38.03;;;;;;;-145.18;100.00;46633.06;5078508;28;20032;-61
2023/09/09 05:40:12;;;;;;;86.73;39.20;;;;;;;-145.18;100.00;46635.00;5086243;28;20040;-61
2023/09/09 05:42:38;;;;;;;66.40;37.60;;;;;;;-145.18;100.00;46633.06;5092666;28;20103;-61
2023/09/09 05:45:04;;;;;;;92.00;39.47;;;;;;;-145.18;100.00;46627.19;5089770;28;20403;-61
2023/09/09 05:47:30;;;;;;;83.93;39.20;;;;;;;-145.18;100.00;46633.06;5090228;28;20116;-61
2023/09/09 05:49:55;;;;;;;106.23;37.70;;;;;;;-145.18;100.00;46629.13;5089083;28;20033;-61
2023/09/09 05:52:21;;;;;;;81.63;38.33;;;;;;;-145.18;100.00;46631.09;5089846;28;20047;-61
2023/09/09 05:54:46;;;;;;;76.07;39.00;;;;;;;-145.18;100.00;46631.09;5087807;28;20124;-61
2023/09/09 05:57:12;;;;;;;96.43;42.97;;;;;;;-145.18;100.00;46631.09;5091831;28;20119;-61
2023/09/09 05:59:38;;;;;;;81.37;40.10;;;;;;;-145.18;100.00;46631.09;5090888;28;20047;-61
2023/09/09 06:02:04;;;;;;;94.13;39.23;;;;;;;-145.18;100.00;46633.06;5091387;28;20024;-61
2023/09/09 06:04:30;;;;;;;90.17;40.03;;;;;;;-145.18;100.00;46629.13;5089769;28;20031;-61
2023/09/09 06:06:56;;;;;;;102.47;41.17;;;;;;;-145.18;100.00;46633.06;5088601;28;20048;-61
2023/09/09 06:09:21;;;;;;;72.27;37.93;;;;;;;-145.18;100.00;46633.06;5080321;28;20033;-61
2023/09/09 06:11:48;;;;;;;80.00;37.63;;;;;;;-145.18;100.00;46629.13;5087549;28;20511;-62
2023/09/09 06:14:14;;;;;;;120.40;41.27;;;;;;;-145.18;100.00;46633.06;5086172;28;20031;-62
2023/09/09 06:16:39;;;;;;;71.97;38.17;;;;;;;-145.18;100.00;46629.13;5089387;28;20085;-61
2023/09/09 06:19:05;;;;;;;78.30;39.90;;;;;;;-145.18;100.00;46631.09;5087316;28;20119;-61
2023/09/09 06:21:30;;;;;;;107.00;38.27;;;;;;;-145.18;100.00;46629.13;5097963;28;20479;-61
2023/09/09 06:23:56;;;;;;;80.17;39.30;;;;;;;-145.18;100.00;46633.06;5088048;28;20129;-61
2023/09/09 06:26:22;;;;;;;100.00;45.50;;;;;;;-145.18;100.00;46629.13;5096398;28;20730;-61
2023/09/09 06:28:47;;;;;;;100.10;45.73;;;;;;;-145.18;100.00;46631.09;5080797;28;20748;-61
2023/09/09 06:31:13;;;;;;;84.17;44.90;;;;;;;-145.18;100.00;46631.09;5078692;28;20130;-61
2023/09/09 06:33:38;;;;;;;96.83;45.47;;;;;;;-145.18;100.00;46629.13;5076499;28;20036;-61
2023/09/09 06:36:04;;;;;;;102.47;44.40;;;;;;;-145.18;100.00;46633.06;5087565;28;20093;-61
2023/09/09 06:38:29;;;;;;;89.63;43.33;;;;;;;-145.18;100.00;46633.06;5088095;28;20036;-61
2023/09/09 06:40:54;;;;;;;108.40;42.87;;;;;;;-145.18;100.00;46633.06;5085374;28;20044;-61
2023/09/09 06:43:20;;;;;;;114.50;45.10;;;;;;;-145.18;100.00;46592.03;5085678;28;20044;-60
2023/09/09 06:45:46;;;;;;;110.90;43.43;;;;;;;-145.18;100.00;46593.97;5084363;28;20530;-61
2023/09/09 06:48:16;;;;;;;124.07;43.00;;;;;;;-145.18;100.00;46590.06;5088106;28;20027;-61
2023/09/09 06:50:47;;;;;;;104.50;43.27;;;;;;;-145.18;100.00;46590.06;5089924;28;20031;-61
2023/09/09 06:53:13;;;;;;;99.97;47.17;;;;;;;-145.18;100.00;46590.06;5085683;28;20766;-61
2023/09/09 06:55:48;;;;;;;108.10;44.97;;;;;;;-145.18;100.00;46588.13;5089033;28;20032;-61
2023/09/09 06:58:14;;;;;;;85.90;46.30;;;;;;;-145.18;100.00;46588.13;5085168;28;20056;-61
2023/09/09 07:00:40;;;;;;;121.80;44.33;;;;;;;-145.18;100.00;46582.25;5087795;28;20028;-61
2023/09/09 07:03:07;;;;;;;103.00;50.93;;;;;;;-145.18;100.00;46580.31;5088143;28;20128;-61
2023/09/09 07:05:32;;;;;;;107.03;54.27;;;;;;;-145.18;100.00;46586.16;5086786;28;20044;-61
2023/09/09 07:07:58;;;;;;;101.27;50.87;;;;;;;-145.18;100.00;46578.34;5117736;28;20036;-62
2023/09/09 07:10:23;;;;;;;151.80;50.07;;;;;;;-145.18;100.00;46582.25;5082754;28;20036;-61
2023/09/09 07:12:51;;;;;;;97.77;48.53;;;;;;;-145.18;100.00;46580.31;5086165;28;20032;-61
2023/09/09 07:15:17;;;;;;;109.03;47.57;;;;;;;-145.18;100.00;46584.22;5084905;28;20047;-61
2023/09/09 07:17:46;;;;;;;129.13;50.03;;;;;;;-145.18;100.00;46582.25;5088106;28;20040;-61
2023/09/09 07:20:12;;;;;;;103.70;50.97;;;;;;;-145.18;100.00;46574.44;5089161;28;20030;-61
2023/09/09 07:22:38;;;;;;;115.37;53.87;;;;;;;-145.18;100.00;46576.41;5083917;28;20056;-61
2023/09/09 07:25:04;;;;;;;111.77;54.53;;;;;;;-145.18;100.00;46574.44;5081953;28;20032;-61
2023/09/09 07:27:30;;;;;;;110.37;58.80;;;;;;;-145.18;100.00;46574.44;5083414;28;20044;-61
2023/09/09 07:29:55;;;;;;;112.20;59.00;;;;;;;-145.18;100.00;46578.34;5087384;28;20033;-61
2023/09/09 07:32:20;;;;;;;113.07;58.60;;;;;;;-145.18;100.00;46574.44;5087552;28;20411;-61
2023/09/09 07:34:46;;;;;;;117.87;60.67;;;;;;;-145.18;100.00;46576.41;5090792;28;20044;-62
2023/09/09 07:37:11;;;;;;;111.90;60.00;;;;;;;-145.18;100.00;46572.50;5087295;28;20059;-62
2023/09/09 07:40:06;;;;;;;125.37;58.73;;;;;;;-145.18;100.00;46570.53;5087392;28;20043;-61
2023/09/09 07:42:32;;;;;;;106.67;60.30;;;;;;;-145.18;100.00;46570.53;5074614;28;20115;-61
2023/09/09 07:44:57;;;;;;;105.87;62.67;;;;;;;-145.18;100.00;46572.50;5083798;28;20510;-61
2023/09/09 07:47:22;;;;;;;119.63;65.60;;;;;;;-145.18;100.00;46576.41;5090110;28;20504;-61
2023/09/09 07:49:49;;;;;;;110.20;63.43;;;;;;;-145.18;100.00;46576.41;5083047;28;20038;-62
2023/09/09 07:52:15;;;;;;;120.83;67.37;;;;;;;-145.18;100.00;46570.53;5095725;28;20105;-61
2023/09/09 07:54:40;;;;;;;119.70;69.43;;;;;;;-145.18;100.00;46572.50;5090157;28;20059;-61
2023/09/09 07:57:06;;;;;;;120.87;69.63;;;;;;;-145.18;100.00;46574.44;5092461;28;20407;-61
2023/09/09 07:59:31;;;;;;;117.80;66.70;;;;;;;-145.18;100.00;46572.50;5088344;28;20027;-61
2023/09/09 08:01:57;;;;;;;120.63;70.23;;;;;;;-145.18;100.00;46576.41;5094652;28;20028;-68
2023/09/09 08:04:23;;;;;;;125.80;71.30;;;;;;;-145.18;100.00;46574.44;5093396;28;20115;-67
2023/09/09 08:06:53;;;;;;;124.27;73.27;;;;;;;-145.18;100.00;46574.44;5088206;28;20031;-67
2023/09/09 08:09:22;;;;;;;129.40;74.23;;;;;;;-145.18;100.00;46574.44;5081884;28;20032;-68
2023/09/09 08:11:47;;;;;;;128.40;75.03;;;;;;;-145.18;100.00;46578.34;5090195;28;20028;-67
2023/09/09 08:14:13;;;;;;;121.10;73.47;;;;;;;-145.18;100.00;46580.31;5087596;28;20124;-67
2023/09/09 08:16:39;;;;;;;521.00;145.10;;;;;;;-145.18;100.00;46582.25;5091120;28;20056;-67
2023/09/09 08:19:04;;;;;;;146.97;77.90;;;;;;;-145.18;100.00;46580.31;5086440;28;20032;-67
2023/09/09 08:21:30;;;;;;;186.37;86.57;;;;;;;-145.18;100.00;46586.16;5090131;28;20430;-67
2023/09/09 08:24:01;;;;;;;116.63;72.80;;;;;;;-145.18;100.00;46588.13;5088262;28;20052;-67
2023/09/09 08:26:28;;;;;;;117.17;71.57;;;;;;;-145.18;100.00;46595.94;5091269;28;20464;-67
2023/09/09 08:28:54;;;;;;;113.83;69.37;;;;;;;-145.18;100.00;46597.88;5083833;28;20111;-67
2023/09/09 08:31:20;;;;;;;108.63;70.13;;;;;;;-145.18;100.00;46599.84;5087239;28;20555;-67
2023/09/09 08:33:45;;;;;;;106.07;68.67;;;;;;;-145.18;100.00;46599.84;5090995;28;20043;-67
2023/09/09 08:36:11;;;;;;;99.97;65.10;;;;;;;-145.18;100.00;46611.56;5091432;28;20098;-67
2023/09/09 08:38:36;;;;;;;99.77;63.30;;;;;;;-145.18;100.00;46609.59;5089438;28;20059;-67
2023/09/09 08:41:16;;;;;;;99.23;63.47;;;;;;;-145.18;100.00;46613.50;5097773;28;20587;-67
2023/09/09 08:43:48;;;;;;;89.50;59.60;;;;;;;-145.18;100.00;46617.41;5087604;28;20453;-66
2023/09/09 08:46:19;;;;;;;87.03;58.00;;;;;;;-145.18;100.00;46627.19;5090807;28;20036;-66
2023/09/09 08:48:45;;;;;;;85.67;56.67;;;;;;;-145.18;100.00;46631.09;5087371;28;20027;-66
2023/09/09 08:51:16;;;;;;;84.43;56.70;;;;;;;-145.18;100.00;46633.06;5088538;28;20024;-67
2023/09/09 08:53:44;;;;;;;83.37;55.30;;;;;;;-145.18;100.00;46629.13;5089235;28;20043;-66
2023/09/09 08:56:13;;;;;;;78.00;54.43;;;;;;;-145.18;100.00;46629.13;5088105;28;20109;-67
2023/09/09 08:58:41;;;;;;;86.00;56.43;;;;;;;-145.18;100.00;46633.06;5082339;28;20081;-67
2023/09/09 09:01:07;;;;;;;79.03;50.15;;;;;;;-145.18;100.00;46635.00;5084379;28;20547;-67
2023/09/09 09:03:33;;;;;;;76.93;52.90;;;;;;;-145.18;100.00;46640.88;5093966;28;20031;-66
2023/09/09 09:06:02;;;;;;;76.25;50.60;;;;;;;-145.18;100.00;46644.78;5086512;28;20383;-66
2023/09/09 09:08:27;;;;;;;72.07;50.10;;;;;;;-145.18;100.00;46650.63;5081458;28;20040;-66
2023/09/09 09:10:55;;;;;;;72.82;47.20;;;;;;;-145.18;100.00;46652.59;5087200;28;20090;-66
2023/09/09 09:13:21;;;;;;;70.75;49.08;;;;;;;-145.18;100.00;46652.59;5088332;28;20073;-62
2023/09/09 09:15:46;;;;;;;73.68;50.13;;;;;;;-145.18;100.00;46654.53;5083613;28;20036;-62
2023/09/09 09:18:12;;;;;;;72.15;46.90;;;;;;;-145.18;100.00;46648.69;5085837;28;20042;-62
2023/09/09 09:20:40;;;;;;;64.72;44.50;;;;;;;-145.18;100.00;46656.50;5080529;28;20086;-62
2023/09/09 09:23:06;;;;;;;57.30;40.85;;;;;;;-145.18;100.00;46662.34;5086738;28;20113;-62
2023/09/09 09:25:37;;;;;;;51.55;36.13;;;;;;;-145.18;100.00;46668.22;5087677;28;20036;-63
2023/09/09 09:28:03;;;;;;;51.17;35.08;;;;;;;-145.18;100.00;46670.16;5081148;28;20032;-63
2023/09/09 09:30:29;;;;;;;63.05;37.45;;;;;;;-145.18;100.00;46670.16;5088692;28;20484;-63
2023/09/09 09:32:55;;;;;;;53.40;36.38;;;;;;;-145.18;100.00;46672.13;5084487;28;20077;-63
2023/09/09 09:35:25;;;;;;;49.22;34.50;;;;;;;-145.18;100.00;46668.22;5085384;28;20472;-63
2023/09/09 09:37:58;;;;;;;43.90;33.05;;;;;;;-145.18;100.00;46633.06;5081396;28;20028;-63
2023/09/09 09:40:25;;;;;;;42.55;29.80;;;;;;;-145.18;100.00;46558.81;5084010;28;20028;-63
2023/09/09 09:42:51;;;;;;;40.80;29.55;;;;;;;-145.18;100.00;46529.53;5090144;28;20113;-63
2023/09/09 09:45:17;;;;;;;48.08;34.83;;;;;;;-145.18;100.00;46533.44;5092074;28;20060;-62
2023/09/09 09:47:50;;;;;;;50.00;36.65;;;;;;;-145.18;100.00;46533.44;5080243;28;20039;-63
2023/09/09 09:50:22;;;;;;;43.92;31.60;;;;;;;-145.18;100.00;46531.47;5076919;28;20462;-63
2023/09/09 09:53:04;;;;;;;41.80;31.35;;;;;;;-145.18;100.00;46533.44;5090675;28;20035;-63
2023/09/09 09:55:31;;;;;;;47.67;33.80;;;;;;;-145.18;100.00;46533.44;5077716;28;20476;-62
2023/09/09 09:57:59;;;;;;;44.30;30.17;;;;;;;-145.18;100.00;46535.38;5095646;28;20399;-63
2023/09/09 10:00:25;;;;;;;39.45;29.75;;;;;;;-145.18;100.00;46535.38;5085551;28;20029;-63
2023/09/09 10:02:54;;;;;;;30.35;21.00;;;;;;;-145.18;100.00;46511.94;5086279;28;20024;-62
2023/09/09 10:05:21;;;;;;;29.30;21.83;;;;;;;-145.18;100.00;46508.03;5086125;28;20560;-63
2023/09/09 10:07:51;;;;;;;27.30;20.10;;;;;;;-145.18;100.00;46500.22;5090876;28;20025;-62
2023/09/09 10:10:19;;;;;;;32.10;19.38;;;;;;;-145.18;100.00;46519.75;5086648;28;20600;-62
2023/09/09 10:12:57;;;;;;;33.22;25.20;;;;;;;-145.18;100.00;46527.56;5088322;28;20032;-63
2023/09/09 10:15:25;;;;;;;23.05;18.67;;;;;;;-145.18;100.00;46510.00;5087247;28;20040;-62
2023/09/09 10:17:52;;;;;;;21.77;16.63;;;;;;;-145.18;100.00;46486.56;5086544;28;20414;-62
2023/09/09 10:20:18;;;;;;;21.73;15.70;;;;;;;-145.18;100.00;46515.84;5089300;28;20107;-62
2023/09/09 10:22:45;;;;;;;21.85;17.45;;;;;;;-145.18;100.00;46758.06;5090797;28;20064;-62
2023/09/09 10:25:11;;;;;;;21.45;16.90;;;;;;;-145.18;100.00;46578.34;5090079;28;20106;-62
2023/09/09 10:27:39;;;;;;;21.55;16.40;;;;;;;-145.18;100.00;47055.00;5093476;28;20085;-62
2023/09/09 10:30:07;;;;;;;17.60;15.63;;;;;;;-145.18;100.00;47039.34;5089264;28;20128;-62
2023/09/09 10:32:35;;;;;;;20.27;16.92;;;;;;;-145.18;100.00;46691.66;5088089;28;20035;-62
2023/09/09 10:35:03;;;;;;;21.13;15.60;;;;;;;-145.18;100.00;47039.34;5086914;28;20028;-63
2023/09/09 10:37:33;;;;;;;18.90;14.93;;;;;;;-145.18;100.00;46781.50;5085762;28;20361;-62
2023/09/09 10:39:59;;;;;;;21.23;14.77;;;;;;;-145.18;100.00;47010.06;5088700;28;20553;-62
2023/09/09 10:42:25;;;;;;;18.92;13.65;;;;;;;-145.18;100.00;47041.31;5088446;28;20107;-62
2023/09/09 10:44:53;;;;;;;20.92;17.30;;;;;;;-145.18;100.00;46969.03;5087628;28;20039;-62
2023/09/09 10:47:19;;;;;;;28.67;18.15;;;;;;;-145.18;100.00;47039.34;5088111;28;20032;-63
2023/09/09 10:49:45;;;;;;;24.27;15.55;;;;;;;-145.18;100.00;46988.56;5091201;28;20392;-63